createdAt,value
2023-03-15T00:01:48.716Z,57887.59
2023-03-15T00:04:17.204Z,59984.41
2023-03-15T00:06:46.862Z,62349.56
2023-03-15T00:09:15.212Z,64215.75
2023-03-15T00:11:43.706Z,68358.53
2023-03-15T00:14:12.321Z,71187.13
2023-03-15T00:16:42.974Z,71954.59
2023-03-15T00:19:11.921Z,72978.16
2023-03-15T00:21:44.585Z,73234.09
2023-03-15T00:24:14.316Z,73234.09
2023-03-15T00:26:42.605Z,73746.06
2023-03-15T00:29:11.096Z,75538.44
2023-03-15T00:31:39.496Z,74258.06
2023-03-15T00:34:07.779Z,75282.31
2023-03-15T00:36:36.251Z,76563.09
2023-03-15T00:39:05.729Z,77075.53
2023-03-15T00:41:36.095Z,77075.53
2023-03-15T00:44:05.165Z,78100.63
2023-03-15T00:46:33.567Z,78100.63
2023-03-15T00:49:01.896Z,78356.94
2023-03-15T00:51:30.451Z,78100.63
2023-03-15T00:53:58.760Z,78613.28
2023-03-15T00:56:30.128Z,76306.91
2023-03-15T00:59:01.186Z,78356.94
2023-03-15T01:01:31.813Z,80921.25
2023-03-15T01:04:00.163Z,80664.72
2023-03-15T01:06:30.172Z,80921.25
2023-03-15T01:09:01.801Z,81177.78
2023-03-15T01:11:30.516Z,78869.66
2023-03-15T01:14:01.076Z,81947.50
2023-03-15T01:16:29.929Z,82717.38
2023-03-15T01:18:58.463Z,83487.44
2023-03-15T01:21:26.940Z,84771.25
2023-03-15T01:23:56.013Z,85028.06
2023-03-15T01:26:25.124Z,85541.78
2023-03-15T01:28:53.507Z,86312.47
2023-03-15T01:31:25.597Z,86312.47
2023-03-15T01:33:54.725Z,86055.56
2023-03-15T01:36:23.462Z,85541.78
2023-03-15T01:38:52.473Z,85028.06
2023-03-15T01:41:27.614Z,84514.44
2023-03-15T01:43:56.354Z,83744.16
2023-03-15T01:46:34.754Z,84514.44
2023-03-15T01:49:26.630Z,84257.66
2023-03-15T01:51:59.691Z,86055.56
2023-03-15T01:54:41.691Z,85284.91
2023-03-15T01:57:14.522Z,86055.56
2023-03-15T01:59:50.308Z,86569.41
2023-03-15T02:02:22.831Z,87597.34
2023-03-15T02:04:58.057Z,88368.50
2023-03-15T02:07:28.939Z,88368.50
2023-03-15T02:10:03.372Z,88625.56
2023-03-15T02:12:39.471Z,88111.41
2023-03-15T02:15:09.446Z,88111.41
2023-03-15T02:17:41.914Z,87340.31
2023-03-15T02:20:20.305Z,86826.34
2023-03-15T02:22:54.870Z,87340.31
2023-03-15T02:25:32.752Z,86826.34
2023-03-15T02:28:04.599Z,85798.66
2023-03-15T02:30:33.251Z,86312.47
2023-03-15T02:33:04.645Z,86312.47
2023-03-15T02:35:34.449Z,85798.66
2023-03-15T02:38:03.614Z,86055.56
2023-03-15T02:40:32.459Z,86826.34
2023-03-15T02:43:08.109Z,86826.34
2023-03-15T02:45:39.699Z,86569.41
2023-03-15T02:48:10.984Z,86826.34
2023-03-15T02:50:39.784Z,87083.34
2023-03-15T02:53:08.105Z,87340.31
2023-03-15T02:55:37.364Z,87854.38
2023-03-15T02:58:07.660Z,87854.38
2023-03-15T03:00:36.096Z,88625.56
2023-03-15T03:03:04.587Z,89139.81
2023-03-15T03:05:33.930Z,89654.13
2023-03-15T03:08:02.848Z,89911.31
2023-03-15T03:10:31.559Z,89911.31
2023-03-15T03:13:02.079Z,90682.97
2023-03-15T03:15:38.445Z,91454.81
2023-03-15T03:18:07.004Z,91969.47
2023-03-15T03:20:35.349Z,92226.81
2023-03-15T03:23:06.142Z,92226.81
2023-03-15T03:25:36.846Z,92741.59
2023-03-15T03:28:07.579Z,91197.50
2023-03-15T03:30:36.736Z,91454.81
2023-03-15T03:33:06.951Z,91712.13
2023-03-15T03:35:35.629Z,92741.59
2023-03-15T03:38:04.063Z,93256.44
2023-03-15T03:40:37.614Z,92999.00
2023-03-15T03:43:07.681Z,93513.91
2023-03-15T03:45:36.868Z,92999.00
2023-03-15T03:48:07.710Z,93256.44
2023-03-15T03:50:36.436Z,92484.19
2023-03-15T03:53:04.879Z,92226.81
2023-03-15T03:55:35.865Z,92484.19
2023-03-15T03:58:04.233Z,93513.91
2023-03-15T04:00:46.633Z,94286.38
2023-03-15T04:03:16.425Z,94801.44
2023-03-15T04:05:48.867Z,95574.19
2023-03-15T04:08:21.596Z,95831.81
2023-03-15T04:10:54.659Z,95831.81
2023-03-15T04:13:25.344Z,96862.50
2023-03-15T04:15:57.713Z,96089.47
2023-03-15T04:18:30.905Z,96862.50
2023-03-15T04:20:59.327Z,97377.97
2023-03-15T04:23:27.939Z,97120.22
2023-03-15T04:26:19.334Z,96862.50
2023-03-15T04:29:04.399Z,97377.97
2023-03-15T04:32:01.687Z,97635.72
2023-03-15T04:34:52.768Z,97635.72
2023-03-15T04:37:44.100Z,97893.50
2023-03-15T04:40:42.880Z,97377.97
2023-03-15T04:43:40.164Z,98151.31
2023-03-15T04:46:31.742Z,98666.94
2023-03-15T04:49:19.756Z,98151.31
2023-03-15T04:51:59.024Z,97893.50
2023-03-15T04:54:40.503Z,98151.31
2023-03-15T04:57:38.482Z,98924.81
2023-03-15T05:00:39.356Z,98409.13
2023-03-15T05:03:30.327Z,98409.13
2023-03-15T05:06:18.588Z,98666.94
2023-03-15T05:09:19.372Z,98151.31
2023-03-15T05:12:02.358Z,98151.31
2023-03-15T05:14:58.200Z,99182.69
2023-03-15T05:17:46.616Z,98924.81
2023-03-15T05:20:34.936Z,98666.94
2023-03-15T05:23:26.576Z,98924.81
2023-03-15T05:26:11.240Z,98409.13
2023-03-15T05:28:45.948Z,97893.50
2023-03-15T05:31:21.052Z,98666.94
2023-03-15T05:34:15.484Z,98666.94
2023-03-15T05:37:02.513Z,98666.94
2023-03-15T05:39:52.017Z,98924.81
2023-03-15T05:42:40.232Z,99182.69
2023-03-15T05:45:37.471Z,99182.69
2023-03-15T05:48:44.314Z,99440.56
2023-03-15T05:51:32.872Z,99698.47
2023-03-15T05:54:19.824Z,99182.69
2023-03-15T05:57:03.110Z,98924.81
2023-03-15T05:59:38.620Z,99182.69
2023-03-15T06:02:07.409Z,99182.69
2023-03-15T06:04:44.137Z,99182.69
2023-03-15T06:07:16.827Z,98924.81
2023-03-15T06:09:45.257Z,99182.69
2023-03-15T06:12:13.717Z,99440.56
2023-03-15T06:14:44.355Z,99698.47
2023-03-15T06:17:13.418Z,99698.47
2023-03-15T06:19:45.143Z,99440.56
2023-03-15T06:22:13.694Z,99698.47
2023-03-15T06:24:52.656Z,100214.34
2023-03-15T06:27:22.332Z,99956.41
2023-03-15T06:29:54.160Z,99956.41
2023-03-15T06:32:24.775Z,99698.47
2023-03-15T06:34:53.463Z,99182.69
2023-03-15T06:37:34.336Z,98924.81
2023-03-15T06:40:06.071Z,99698.47
2023-03-15T06:42:35.011Z,99182.69
2023-03-15T06:45:06.073Z,99182.69
2023-03-15T06:47:34.616Z,99440.56
2023-03-15T06:50:06.287Z,99698.47
2023-03-15T06:52:35.006Z,99698.47
2023-03-15T06:55:03.824Z,99698.47
2023-03-15T06:57:32.454Z,99182.69
2023-03-15T07:00:00.866Z,99956.41
2023-03-15T07:02:37.150Z,100214.34
2023-03-15T07:05:06.584Z,100214.34
2023-03-15T07:07:35.108Z,99698.47
2023-03-15T07:10:03.780Z,99182.69
2023-03-15T07:12:32.266Z,99440.56
2023-03-15T07:15:00.852Z,99956.41
2023-03-15T07:17:30.769Z,99698.47
2023-03-15T07:19:59.190Z,99698.47
2023-03-15T07:22:27.938Z,99956.41
2023-03-15T07:24:56.452Z,100472.31
2023-03-15T07:27:25.113Z,99698.47
2023-03-15T07:29:55.527Z,99956.41
2023-03-15T07:32:24.275Z,100730.31
2023-03-15T07:34:58.340Z,100988.31
2023-03-15T07:37:26.860Z,101246.34
2023-03-15T07:39:55.756Z,101246.34
2023-03-15T07:42:24.339Z,101246.34
2023-03-15T07:44:57.348Z,100988.31
2023-03-15T07:47:25.837Z,98409.13
2023-03-15T07:49:55.615Z,97377.97
2023-03-15T07:52:24.422Z,99182.69
2023-03-15T07:54:53.417Z,100472.31
2023-03-15T07:57:22.114Z,100472.31
2023-03-15T07:59:52.467Z,101504.38
2023-03-15T08:02:21.070Z,98151.31
2023-03-15T08:04:51.440Z,99698.47
2023-03-15T08:07:21.224Z,97893.50
2023-03-15T08:09:49.677Z,96604.81
2023-03-15T08:12:18.114Z,97635.72
2023-03-15T08:14:46.625Z,96089.47
2023-03-15T08:17:16.366Z,94801.44
2023-03-15T08:19:45.456Z,93256.44
2023-03-15T08:22:14.031Z,96347.13
2023-03-15T08:24:45.504Z,95574.19
2023-03-15T08:27:13.975Z,96347.13
2023-03-15T08:29:43.039Z,97377.97
2023-03-15T08:32:11.595Z,96089.47
2023-03-15T08:34:40.183Z,95574.19
2023-03-15T08:37:08.830Z,96604.81
2023-03-15T08:39:37.519Z,94543.91
2023-03-15T08:42:08.231Z,92484.19
2023-03-15T08:44:36.750Z,92999.00
2023-03-15T08:47:06.325Z,91712.13
2023-03-15T08:49:35.380Z,91712.13
2023-03-15T08:52:04.042Z,85798.66
2023-03-15T08:54:32.821Z,86826.34
2023-03-15T08:57:01.378Z,88368.50
2023-03-15T08:59:32.925Z,91454.81
2023-03-15T09:02:01.724Z,88368.50
2023-03-15T09:04:30.464Z,84514.44
2023-03-15T09:06:59.110Z,82974.03
2023-03-15T09:09:28.474Z,83744.16
2023-03-15T09:11:57.116Z,78356.94
2023-03-15T09:14:25.569Z,71954.59
2023-03-15T09:16:55.616Z,63330.38
2023-03-15T09:19:24.150Z,65390.63
2023-03-15T09:21:52.780Z,68622.09
2023-03-15T09:24:21.205Z,67683.69
2023-03-15T09:26:49.831Z,57027.75
2023-03-15T09:29:18.303Z,58666.03
2023-03-15T09:31:46.846Z,57300.41
2023-03-15T09:34:17.105Z,58261.88
2023-03-15T09:36:47.233Z,57397.94
2023-03-15T09:39:17.014Z,54781.66
2023-03-15T09:41:48.780Z,55161.53
2023-03-15T09:44:30.975Z,55056.13
2023-03-15T09:47:10.324Z,55014.34
2023-03-15T09:49:47.878Z,54954.69
2023-03-15T09:52:28.032Z,54769.72
2023-03-15T09:55:01.333Z,55091.91
2023-03-15T09:57:41.289Z,55215.22
2023-03-15T10:00:17.378Z,55163.53
2023-03-15T10:02:53.353Z,55499.69
2023-03-15T10:05:27.478Z,55368.41
2023-03-15T10:07:56.114Z,54932.78
2023-03-15T10:10:32.011Z,55316.69
2023-03-15T10:13:08.788Z,54497.25
2023-03-15T10:15:45.013Z,54234.75
2023-03-15T10:18:28.022Z,54171.13
2023-03-15T10:21:07.512Z,54127.38
2023-03-15T10:23:46.567Z,54159.19
2023-03-15T10:26:19.573Z,54087.63
2023-03-15T10:28:49.028Z,54181.06
2023-03-15T10:31:32.964Z,54029.97
2023-03-15T10:34:11.805Z,54000.13
2023-03-15T10:36:46.342Z,54039.91
2023-03-15T10:39:15.478Z,54081.66
2023-03-15T10:41:45.801Z,54057.78
2023-03-15T10:44:17.261Z,54067.75
2023-03-15T10:47:07.103Z,53948.44
2023-03-15T10:49:41.138Z,53988.19
2023-03-15T10:52:31.818Z,53940.47
2023-03-15T10:55:04.523Z,53942.47
2023-03-15T10:57:39.170Z,53952.41
2023-03-15T11:00:24.401Z,53956.38
2023-03-15T11:03:04.620Z,53942.47
2023-03-15T11:05:43.016Z,53926.56
2023-03-15T11:08:16.452Z,53916.63
2023-03-15T11:10:47.117Z,53908.66
2023-03-15T11:13:22.096Z,53912.66
2023-03-15T11:16:01.519Z,53876.84
2023-03-15T11:18:33.681Z,53900.72
2023-03-15T11:21:06.920Z,53890.78
2023-03-15T11:23:40.450Z,53868.91
2023-03-15T11:26:29.584Z,53815.22
2023-03-15T11:29:02.597Z,53868.91
2023-03-15T11:31:32.444Z,53868.91
2023-03-15T11:34:05.822Z,53849.03
2023-03-15T11:36:38.310Z,53821.19
2023-03-15T11:39:12.710Z,53821.19
2023-03-15T11:41:45.733Z,53856.97
2023-03-15T11:44:24.531Z,53827.16
2023-03-15T11:46:59.167Z,53827.16
2023-03-15T11:49:36.670Z,53815.22
2023-03-15T11:52:06.657Z,53827.16
2023-03-15T11:54:36.589Z,53797.31
2023-03-15T11:57:07.580Z,53817.22
2023-03-15T11:59:40.175Z,53805.28
2023-03-15T12:02:37.779Z,53781.41
2023-03-15T12:05:17.876Z,53781.41
2023-03-15T12:08:18.928Z,53777.44
2023-03-15T12:10:50.955Z,53769.50
2023-03-15T12:13:27.201Z,53755.56
2023-03-15T12:15:56.277Z,53747.63
2023-03-15T12:18:32.501Z,53761.53
2023-03-15T12:21:11.026Z,53779.44
2023-03-15T12:23:44.379Z,53751.59
2023-03-15T12:26:26.461Z,53725.75
2023-03-15T12:29:06.915Z,53725.75
2023-03-15T12:31:47.688Z,53686.00
2023-03-15T12:34:24.152Z,53703.88
2023-03-15T12:36:57.360Z,53717.78
2023-03-15T12:39:42.743Z,53678.03
2023-03-15T12:42:57.562Z,53693.94
2023-03-15T12:45:46.624Z,53719.78
2023-03-15T12:48:59.045Z,53707.84
2023-03-15T12:51:43.878Z,53709.84
2023-03-15T12:54:17.241Z,53684.00
2023-03-15T12:56:51.798Z,53709.84
2023-03-15T12:59:34.315Z,53741.66
2023-03-15T13:02:04.539Z,53753.59
2023-03-15T13:04:33.268Z,53743.66
2023-03-15T13:07:30.579Z,53753.59
2023-03-15T13:10:23.639Z,53733.69
2023-03-15T13:12:59.052Z,53684.00
2023-03-15T13:15:34.831Z,53634.28
2023-03-15T13:18:18.153Z,53632.31
2023-03-15T13:21:00.685Z,53658.16
2023-03-15T13:23:30.801Z,53709.84
2023-03-15T13:26:21.063Z,53755.56
2023-03-15T13:28:52.279Z,53717.78
2023-03-15T13:31:24.907Z,53729.72
2023-03-15T13:33:57.525Z,53717.78
2023-03-15T13:36:28.525Z,53729.72
2023-03-15T13:38:58.755Z,53755.56
2023-03-15T13:41:29.264Z,53743.66
2023-03-15T13:43:59.673Z,53729.72
2023-03-15T13:46:31.819Z,53662.13
2023-03-15T13:49:02.633Z,53666.09
2023-03-15T13:51:34.107Z,53588.56
2023-03-15T13:54:05.795Z,53618.38
2023-03-15T13:56:48.885Z,53610.44
2023-03-15T13:59:20.140Z,53636.28
2023-03-15T14:01:54.144Z,53600.50
2023-03-15T14:04:24.523Z,53622.38
2023-03-15T14:07:07.979Z,53634.28
2023-03-15T14:09:36.788Z,53610.44
2023-03-15T14:12:07.945Z,53636.28
2023-03-15T14:14:39.977Z,53598.50
2023-03-15T14:17:21.937Z,53606.47
2023-03-15T14:19:55.536Z,53616.41
2023-03-15T14:22:24.832Z,53638.28
2023-03-15T14:24:54.208Z,53678.03
2023-03-15T14:27:26.638Z,53650.19
2023-03-15T14:29:58.973Z,53640.25
2023-03-15T14:32:31.985Z,53626.34
2023-03-15T14:35:04.886Z,53662.13
2023-03-15T14:37:37.920Z,53650.19
2023-03-15T14:40:21.145Z,53654.19
2023-03-15T14:42:51.645Z,53684.00
2023-03-15T14:45:22.281Z,53648.22
2023-03-15T14:47:57.517Z,53624.34
2023-03-15T14:50:28.961Z,53650.19
2023-03-15T14:52:59.375Z,53658.16
2023-03-15T14:55:33.641Z,53646.22
2023-03-15T14:58:02.820Z,53618.38
2023-03-15T15:00:31.295Z,53664.13
2023-03-15T15:03:01.603Z,53662.13
2023-03-15T15:05:31.879Z,53705.88
2023-03-15T15:08:05.321Z,53666.09
2023-03-15T15:10:35.010Z,53691.94
2023-03-15T15:13:06.763Z,53682.00
2023-03-15T15:15:51.860Z,53670.09
2023-03-15T15:18:25.845Z,53668.09
2023-03-15T15:20:56.217Z,53676.03
2023-03-15T15:23:27.969Z,53638.28
2023-03-15T15:25:59.592Z,53676.03
2023-03-15T15:28:37.570Z,53680.03
2023-03-15T15:31:07.650Z,53674.06
2023-03-15T15:33:37.636Z,53731.72
2023-03-15T15:36:12.443Z,53703.88
2023-03-15T15:38:41.806Z,53709.84
2023-03-15T15:41:16.176Z,53713.81
2023-03-15T15:43:44.965Z,53713.81
2023-03-15T15:46:13.644Z,53658.16
2023-03-15T15:48:43.636Z,53709.84
2023-03-15T15:51:24.169Z,53689.97
2023-03-15T15:53:53.622Z,53701.88
2023-03-15T15:56:23.696Z,53717.78
2023-03-15T15:58:52.222Z,53729.72
2023-03-15T16:01:20.809Z,53721.78
2023-03-15T16:03:50.678Z,53713.81
2023-03-15T16:06:21.781Z,53737.69
2023-03-15T16:08:52.073Z,53697.91
2023-03-15T16:11:22.236Z,53739.66
2023-03-15T16:13:53.946Z,53733.69
2023-03-15T16:16:22.657Z,53695.94
2023-03-15T16:18:52.609Z,53721.78
2023-03-15T16:21:29.618Z,53733.69
2023-03-15T16:24:02.533Z,53717.78
2023-03-15T16:26:31.207Z,53743.66
2023-03-15T16:29:00.933Z,53753.59
2023-03-15T16:31:30.130Z,53733.69
2023-03-15T16:34:00.078Z,53753.59
2023-03-15T16:36:28.790Z,53761.53
2023-03-15T16:38:57.453Z,53777.44
2023-03-15T16:41:26.442Z,53769.50
2023-03-15T16:43:55.077Z,53743.66
2023-03-15T16:46:23.622Z,53749.59
2023-03-15T16:48:52.107Z,53771.47
2023-03-15T16:51:21.858Z,53811.25
2023-03-15T16:53:50.421Z,53813.22
2023-03-15T16:56:19.031Z,53809.25
2023-03-15T16:58:52.604Z,53781.41
2023-03-15T17:01:21.403Z,53813.22
2023-03-15T17:03:50.113Z,53819.19
2023-03-15T17:06:23.472Z,53817.22
2023-03-15T17:08:58.676Z,53829.13
2023-03-15T17:11:30.100Z,53825.16
2023-03-15T17:14:00.509Z,53839.06
2023-03-15T17:16:29.559Z,53847.03
2023-03-15T17:18:58.316Z,53827.16
2023-03-15T17:21:29.015Z,53821.19
2023-03-15T17:23:59.423Z,53839.06
2023-03-15T17:26:31.745Z,53845.03
2023-03-15T17:29:01.094Z,53845.03
2023-03-15T17:31:30.968Z,53882.81
2023-03-15T17:34:02.541Z,53856.97
2023-03-15T17:36:37.699Z,53849.03
2023-03-15T17:39:10.695Z,53880.84
2023-03-15T17:41:45.364Z,53876.84
2023-03-15T17:44:14.085Z,53860.94
2023-03-15T17:46:43.159Z,53908.66
2023-03-15T17:49:13.434Z,53900.72
2023-03-15T17:51:42.864Z,53904.69
2023-03-15T17:54:18.545Z,53914.63
2023-03-15T17:56:47.586Z,53924.56
2023-03-15T17:59:16.976Z,53932.53
2023-03-15T18:01:48.976Z,53924.56
2023-03-15T18:04:20.359Z,53928.56
2023-03-15T18:06:49.747Z,53982.25
2023-03-15T18:09:22.473Z,53926.56
2023-03-15T18:11:51.724Z,53964.34
2023-03-15T18:14:21.215Z,53956.38
2023-03-15T18:16:50.772Z,54006.09
2023-03-15T18:19:19.580Z,53980.25
2023-03-15T18:21:48.723Z,53994.16
2023-03-15T18:24:19.889Z,54000.13
2023-03-15T18:26:49.016Z,53996.16
2023-03-15T18:29:17.946Z,54041.88
2023-03-15T18:31:47.414Z,54024.00
2023-03-15T18:34:17.372Z,54041.88
2023-03-15T18:36:46.109Z,54035.91
2023-03-15T18:39:14.832Z,54051.81
2023-03-15T18:41:44.808Z,54033.94
2023-03-15T18:44:13.270Z,54037.91
2023-03-15T18:46:44.001Z,54041.88
2023-03-15T18:49:12.505Z,54059.78
2023-03-15T18:51:41.612Z,54043.88
2023-03-15T18:54:10.473Z,54043.88
2023-03-15T18:56:39.028Z,54073.69
2023-03-15T18:59:08.902Z,54109.50
2023-03-15T19:01:38.507Z,54087.63
2023-03-15T19:04:07.215Z,54087.63
2023-03-15T19:06:35.722Z,54067.75
2023-03-15T19:09:05.561Z,54093.59
2023-03-15T19:11:38.254Z,54109.50
2023-03-15T19:14:08.230Z,54101.53
2023-03-15T19:16:36.800Z,54171.13
2023-03-15T19:19:05.514Z,54111.47
2023-03-15T19:21:34.014Z,54131.38
2023-03-15T19:24:02.870Z,54097.56
2023-03-15T19:26:31.256Z,54103.53
2023-03-15T19:28:59.728Z,54119.44
2023-03-15T19:31:29.930Z,54117.44
2023-03-15T19:33:58.589Z,54103.53
2023-03-15T19:36:27.160Z,54115.47
2023-03-15T19:38:55.498Z,54073.69
2023-03-15T19:41:24.205Z,54117.44
2023-03-15T19:43:52.964Z,54131.38
2023-03-15T19:46:22.157Z,54119.44
2023-03-15T19:48:51.997Z,54099.56
2023-03-15T19:51:21.084Z,54105.50
2023-03-15T19:53:49.534Z,54115.47
2023-03-15T19:56:17.914Z,54147.28
2023-03-15T19:58:46.271Z,54095.56
2023-03-15T20:01:16.100Z,54107.50
2023-03-15T20:03:44.612Z,54095.56
2023-03-15T20:06:15.242Z,54095.56
2023-03-15T20:08:43.796Z,54127.38
2023-03-15T20:11:15.197Z,54077.69
2023-03-15T20:13:44.064Z,54103.53
2023-03-15T20:16:12.755Z,54105.50
2023-03-15T20:18:41.321Z,54107.50
2023-03-15T20:21:09.743Z,54091.59
2023-03-15T20:23:39.596Z,54133.34
2023-03-15T20:26:10.957Z,54107.50
2023-03-15T20:28:40.363Z,54103.53
2023-03-15T20:31:10.082Z,54107.50
2023-03-15T20:33:38.573Z,54141.31
2023-03-15T20:36:07.529Z,54119.44
2023-03-15T20:38:37.359Z,54119.44
2023-03-15T20:41:08.548Z,54119.44
2023-03-15T20:43:37.400Z,54137.34
2023-03-15T20:46:06.071Z,54107.50
2023-03-15T20:48:36.058Z,54147.28
2023-03-15T20:51:05.297Z,54127.38
2023-03-15T20:53:36.072Z,54115.47
2023-03-15T20:56:07.078Z,54085.63
2023-03-15T20:58:36.283Z,54115.47
2023-03-15T21:01:06.838Z,54121.41
2023-03-15T21:03:38.494Z,54111.47
2023-03-15T21:06:08.381Z,54107.50
2023-03-15T21:08:38.471Z,54147.28
2023-03-15T21:11:11.970Z,54163.19
2023-03-15T21:13:41.388Z,54111.47
2023-03-15T21:16:10.749Z,54119.44
2023-03-15T21:18:40.408Z,54153.25
2023-03-15T21:21:11.181Z,54143.28
2023-03-15T21:23:40.339Z,54151.25
2023-03-15T21:26:13.531Z,54147.28
2023-03-15T21:28:43.292Z,54179.09
2023-03-15T21:31:15.845Z,54121.41
2023-03-15T21:33:45.107Z,54175.13
2023-03-15T21:36:14.353Z,54167.16
2023-03-15T21:38:43.548Z,54155.22
2023-03-15T21:41:14.566Z,54167.16
2023-03-15T21:43:43.664Z,54165.16
2023-03-15T21:46:14.480Z,54167.16
2023-03-15T21:48:43.842Z,54155.22
2023-03-15T21:51:14.624Z,54177.09
2023-03-15T21:53:43.593Z,54175.13
2023-03-15T21:56:14.017Z,54157.22
2023-03-15T21:58:43.103Z,54167.16
2023-03-15T22:01:14.003Z,54153.25
2023-03-15T22:03:44.352Z,54173.13
2023-03-15T22:06:13.863Z,54187.03
2023-03-15T22:08:42.860Z,54175.13
2023-03-15T22:11:11.449Z,54175.13
2023-03-15T22:13:41.816Z,54175.13
2023-03-15T22:16:10.645Z,54187.03
2023-03-15T22:18:39.222Z,54179.09
2023-03-15T22:21:08.166Z,54189.03
2023-03-15T22:23:36.757Z,54171.13
2023-03-15T22:26:05.123Z,54210.91
2023-03-15T22:28:35.229Z,54230.78
2023-03-15T22:31:07.648Z,54187.03
2023-03-15T22:33:36.177Z,54220.84
2023-03-15T22:36:04.992Z,54200.97
2023-03-15T22:38:38.101Z,54224.81
2023-03-15T22:41:08.596Z,54252.66
2023-03-15T22:43:38.957Z,54195.00
2023-03-15T22:46:08.900Z,54195.00
2023-03-15T22:48:37.329Z,54212.88
2023-03-15T22:51:07.948Z,54218.84
2023-03-15T22:53:36.392Z,54210.91
2023-03-15T22:56:05.083Z,54256.63
2023-03-15T22:58:33.669Z,54206.94
2023-03-15T23:01:02.557Z,54202.94
2023-03-15T23:03:34.847Z,54236.75
2023-03-15T23:06:03.347Z,54210.91
2023-03-15T23:08:31.820Z,54236.75
2023-03-15T23:11:00.439Z,54250.69
2023-03-15T23:13:29.020Z,54236.75
2023-03-15T23:15:57.436Z,54234.75
2023-03-15T23:18:25.881Z,54254.66
2023-03-15T23:21:05.848Z,54240.72
2023-03-15T23:23:34.276Z,54228.81
2023-03-15T23:26:03.982Z,54226.81
2023-03-15T23:28:32.662Z,54238.75
2023-03-15T23:31:02.917Z,54238.75
2023-03-15T23:33:34.270Z,54254.66
2023-03-15T23:36:05.819Z,54224.81
2023-03-15T23:38:35.002Z,54236.75
2023-03-15T23:41:05.165Z,54234.75
2023-03-15T23:43:34.685Z,54272.53
2023-03-15T23:46:04.979Z,54232.78
2023-03-15T23:48:36.256Z,54266.59
2023-03-15T23:51:06.273Z,54191.03
2023-03-15T23:53:34.734Z,54244.72
2023-03-15T23:56:03.184Z,54248.69
2023-03-15T23:58:31.593Z,54226.81
